1979 Tropical Cyclone STAN (1979093S08156)


IBTrACS version v04r00. Visit IBTrACS website for data access.
Please direct all questions to the IBTrACS Q and A forum

Storm track - Intensity - Wind Radii - Intensity Data - Source Data - All data

Summary Information

Satellite image near maximum intensity
Storm ID 1979093S08156
Start Apr 3 00Z
Landfall Apr 8 08Z, Apr 14 08Z
Max Intensity 40 kt (Apr 13 18Z), 995 mb (Apr 13 17Z)
End Apr 17 00Z
ATCF IDs SH241979
Track status Best track data.

Storm track plot

Map of storm track

Intensity plots

Map of storm track

Radial wind information

No radial wind information for this storm


Position and Intensity Table

BASIN ISO_TIME_________ NATURE LAT LON WMO WIND WMO PRES BOM WIND BOM PRES NEUMANN WIND NEUMANN PRES
degrees north degrees east kts mb kts mb kts mb
SP 1979-04-03 00:00:00 TS -7.80 156.00
SP 03:00:00 TS -8.00 155.95
SP 06:00:00 TS -8.20 155.89
SP 09:00:00 TS -8.40 155.84
SP 12:00:00 TS -8.60 155.80
SP 15:00:00 TS -8.80 155.76
SP 18:00:00 TS -8.99 155.72
SP 21:00:00 TS -9.19 155.69
SP 1979-04-04 00:00:00 TS -9.40 155.60
SP 03:00:00 TS -9.65 155.43
SP 06:00:00 TS -9.92 155.18
SP 09:00:00 TS -10.22 154.85
SP 12:00:00 TS -10.50 154.50
SP 15:00:00 TS -10.72 154.20
SP 18:00:00 TS -10.91 153.91
SP 21:00:00 TS -11.07 153.61
SP 1979-04-05 00:00:00 TS -11.20 153.30
SP 03:00:00 TS -11.27 152.96
SP 06:00:00 TS -11.32 152.59
SP 09:00:00 TS -11.36 152.19
SP 12:00:00 TS -11.40 151.80
SP 15:00:00 TS -11.45 151.49
SP 18:00:00 TS -11.49 151.19
SP 21:00:00 TS -11.50 150.86
SP 1979-04-06 00:00:00 TS -11.50 150.50
SP 03:00:00 TS -11.50 150.11
SP 05:00:00 TS -11.47 149.85 25 1002 25 1002
SP 06:00:00 TS -11.40 149.78 25 1002 25 1002
SP 09:00:00 TS -11.36 149.43 25 1003 22 1003
SP 11:00:00 TS -11.32 149.23 25 1004 25 1004 20 1003
SP 12:00:00 TS -11.30 149.15 25 1003 20 1004
SP 15:00:00 TS -11.27 148.85 25 1002 22 1003
SP 17:00:00 TS -11.26 148.65 25 1002 25 1002 24 1002
SP 18:00:00 TS -11.25 148.54 25 1002 25 1002
SP 21:00:00 TS -11.22 148.18 25 1003 22 1003
SP 23:00:00 TS -11.20 147.92 25 1005 25 1005 20 1004
SP 1979-04-07 00:00:00 TS -11.20 147.77 25 1004 20 1005
SP 03:00:00 TS -11.17 147.32 25 1003 22 1003
SP 05:00:00 TS -11.16 146.99 25 1002 25 1002 24 1002
SP 06:00:00 TS -11.16 146.82 25 1002 25 1002
SP 09:00:00 TS -11.18 146.30 25 1003 22 1003
SP 11:00:00 TS -11.19 145.94 25 1004 25 1004 20 1003
SP 12:00:00 TS -11.20 145.77 25 1003 20 1004
SP 15:00:00 TS -11.20 145.26 25 1002 22 1003
SP 17:00:00 TS -11.21 144.92 25 1002 25 1002 24 1002
SP 18:00:00 TS -11.21 144.76 25 1002 25 1002
SP 21:00:00 TS -11.23 144.26 25 1003 25 1002
SP 23:00:00 TS -11.24 143.94 25 1004 25 1004 25 1002
SP 1979-04-08 00:00:00 TS -11.25 143.79 25 1003 25 1003
SP 03:00:00 TS -11.25 143.36 25 1003 25 1003
SP 05:00:00 TS -11.25 143.11 25 1003 25 1003 25 1003
SP 06:00:00 TS -11.25 142.99 25 1002 25 1003
SP 08:00:00 TS -11.26 142.79 25 1001 25 1001 25 1003
SP 09:00:00 TS -11.26 142.71 25 1001 25 1003
SP 11:00:00 TS -11.25 142.59 25 1003 25 1003 25 1003
SP 12:00:00 TS -11.25 142.54 25 1003 25 1003
SP 15:00:00 TS -11.23 142.39 25 1003 25 1003
SP 17:00:00 TS -11.21 142.27 25 1003 25 1003 25 1003
SP 18:00:00 TS -11.20 142.20 25 1003 25 1003
SP 20:00:00 TS -11.18 142.01 25 1003 25 1003 23 1003
SP 21:00:00 TS -11.17 141.91 25 1003 22 1003
SP 23:00:00 TS -11.16 141.71 25 1005 25 1005 20 1003
SP 1979-04-09 00:00:00 TS -11.15 141.60 25 1004 20 1004
SP 03:00:00 TS -11.15 141.28 25 1003 22 1003
SP 05:00:00 TS -11.15 141.06 25 1003 25 1003 24 1003
SP 06:00:00 TS -11.15 140.96 25 1003 25 1003
SP 09:00:00 TS -11.13 140.65 25 1003 22 1003
SP 11:00:00 TS -11.11 140.45 25 1004 25 1004 20 1003
SP 12:00:00 TS -11.10 140.35 25 1003 20 1004
SP 15:00:00 TS -11.08 140.03 25 1003 22 1003
SP 17:00:00 TS -11.06 139.81 25 1003 25 1003 24 1003
SP 18:00:00 TS -11.05 139.70 25 1003 25 1003
SP 21:00:00 TS -11.03 139.39 25 1003 25 1003
SP 23:00:00 TS -11.01 139.18 25 1004 25 1004 25 1003
SP 1979-04-10 00:00:00 TS -11.00 139.07 25 1003 25 1003
SP 03:00:00 TS -10.95 138.71 25 1000 27 1001
SP 05:00:00 TS -10.92 138.47 25 999 25 999 29 999
SP 06:00:00 TS -10.91 138.35 25 999 30 999
SP 09:00:00 TS -10.87 137.99 25 1000 27 1000
SP 11:00:00 TS -10.86 137.76 25 1001 25 1001 25 1000
SP 12:00:00 TS -10.85 137.65 25 1000 25 1001
SP 15:00:00 TS -10.83 137.34 25 1000 27 1000
SP 17:00:00 TS -10.81 137.15 25 1000 25 1000 29 1000
SP 18:00:00 TS -10.80 137.05 25 999 30 1000
SP 21:00:00 TS -10.77 136.76 28 999 30 999
SP 23:00:00 TS -10.73 136.59 30 999 30 999 30 999
SP 1979-04-11 00:00:00 TS -10.70 136.51 30 998 30 999
SP 03:00:00 TS -10.58 136.28 30 997 32 997
SP 05:00:00 TS -10.49 136.17 30 996 30 996 34 996
SP 06:00:00 TS -10.44 136.13 30 996 35 996
SP 09:00:00 TS -10.30 136.08 30 998 32 998
SP 11:00:00 TS -10.23 136.11 30 1000 30 1000 30 999
SP 12:00:00 TS -10.20 136.13 30 999 30 1000
SP 15:00:00 TS -10.18 136.28 30 999 30 999
SP 17:00:00 TS -10.19 136.41 30 999 30 999 30 999
SP 18:00:00 TS -10.19 136.48 30 999 30 999
SP 21:00:00 TS -10.21 136.69 30 999 30 999
SP 23:00:00 TS -10.24 136.83 30 1000 30 1000 30 999
SP 1979-04-12 00:00:00 TS -10.25 136.88 30 999 30 999
SP 03:00:00 TS -10.30 136.98 30 999 30 999
SP 05:00:00 TS -10.34 137.03 30 999 30 999 30 999
SP 06:00:00 TS -10.35 137.06 30 999 30 999
SP 09:00:00 TS -10.37 137.17 30 999 30 999
SP 11:00:00 TS -10.39 137.25 30 1000 30 1000 30 999
SP 12:00:00 TS -10.40 137.29 30 1000 30 1000
SP 15:00:00 TS -10.45 137.41 30 1000 30 1000
SP 17:00:00 TS -10.48 137.51 30 1000 30 1000 30 1000
SP 18:00:00 TS -10.50 137.56 30 1000 30 1000
SP 21:00:00 TS -10.55 137.74 30 1000 30 1000
SP 23:00:00 TS -10.58 137.89 30 1000 30 1000 30 1000
SP 1979-04-13 00:00:00 TS -10.60 137.97 30 999 30 1000
SP 03:00:00 TS -10.67 138.23 33 997 32 998
SP 05:00:00 TS -10.72 138.42 35 996 35 996 34 996
SP 06:00:00 TS -10.75 138.52 35 996 35 996
SP 09:00:00 TS -10.85 138.82 35 998 32 998
SP 11:00:00 TS -10.93 139.02 35 1000 35 1000 30 999
SP 12:00:00 TS -10.98 139.12 35 999 30 1000
SP 15:00:00 TS -11.11 139.36 35 996 35 997
SP 17:00:00 TS -11.21 139.53 35 995 35 995 38 995
SP 18:00:00 TS -11.26 139.62 35 995 40 995
SP 21:00:00 TS -11.41 139.93 35 996 37 995
SP 23:00:00 TS -11.51 140.19 35 997 35 997 35 995
SP 1979-04-14 00:00:00 TS -11.58 140.34 35 996 35 996
SP 03:00:00 TS -11.81 140.86 35 996 35 996
SP 05:00:00 TS -11.98 141.29 35 996 35 996 35 996
SP 06:00:00 TS -12.06 141.52 33 997 35 996
SP 08:00:00 TS -12.24 142.07 30 1000 30 1000 31 998
SP 09:00:00 TS -12.33 142.39 30 1000 30 999
SP 11:00:00 TS -12.49 143.08 30 1002 30 1002 26 1001
SP 12:00:00 TS -12.55 143.42 30 1001 25 1002
SP 15:00:00 TS -12.64 144.39 30 1000 27 1001
SP 17:00:00 TS -12.68 145.02 30 1000 30 1000 29 1000
SP 18:00:00 TS -12.71 145.33 30 1000 30 1000
SP 21:00:00 TS -12.80 146.21 30 1001 27 1000
SP 23:00:00 TS -12.89 146.80 30 1002 30 1002 25 1000
SP 1979-04-15 00:00:00 TS -12.96 147.11 29 1001 25 1001
SP 03:00:00 TS -13.23 148.04 26 1000 30
SP 05:00:00 TS -13.44 148.69 25 1000 25 1000 33
SP 06:00:00 TS -13.54 149.03 25 1000 35
SP 09:00:00 TS -13.84 150.06 25 1001 35
SP 11:00:00 TS -14.03 150.74 25 1002 25 1002 35
SP 12:00:00 TS -14.21 151.04 25 1002 35
SP 15:00:00 TS -14.51 151.89 25 1002 32
SP 17:00:00 TS -14.67 152.45 25 1002 25 1002 30
SP 18:00:00 TS -14.80 152.73 30
SP 21:00:00 TS -14.92 153.64 30
SP 1979-04-16 00:00:00 TS -15.00 154.70 30
SP 03:00:00 TS -15.06 156.02 30
SP 06:00:00 TS -15.11 157.47 30
SP 09:00:00 TS -15.15 158.89 30
SP 12:00:00 TS -15.20 160.30 30
SP 15:00:00 TS -15.25 161.66 30
SP 18:00:00 TS -15.29 162.98 30
SP 21:00:00 TS -15.30 164.29 30
SP 1979-04-17 00:00:00 TS -15.30 165.60 30

Source Information

Agency Information
USA bsh241979.txt
TOKYO
CMA
HKO
NEWDELHI
REUNION
BOM IDCKMSTM0S.csv:Line=11731:STAN
NADI
WELLINGTON
DS824 s_hem.dat:1402:24P
TD9636 cons_worldwide_trop_cyclone_18710101-19891231-006:Line=10906
TD9635
NEUMANN tracks.sh:Storm=559:STAN:BSH2479:BM497
MLC

All available IBTrACS Data

SEASON BASIN SUBBASIN ISO_TIME_________ NATURE LAT LON WMO WIND WMO PRES WMO AGENCY DIST2LAND LANDFALL IFLAG USA AGENCY USA ATCF_ID USA LAT USA LON USA SSHS BOM LAT BOM LON BOM TYPE BOM WIND BOM PRES BOM CI DS824 LAT DS824 LON DS824 STAGE TD9636 LAT TD9636 LON TD9636 STAGE NEUMANN LAT NEUMANN LON NEUMANN CLASS NEUMANN WIND NEUMANN PRES BOM GUST BOM GUST_PER STORM SPEED STORM DIR
Year degrees north degrees east kts mb km km degrees north degrees east 1 degrees north degrees east kts mb 1 degrees north degrees east degrees north degrees east degrees north degrees east kts mb kts second kts degrees
1979 SP EA 1979-04-03 00:00:00 TS -7.80 156.00 106 106 O________OO___ jtwc_sh SH241979 -7.80 156.00 -1 -7.80 156.00 TC -7.80 156.00 1 4 196
1979 SP EA 03:00:00 TS -8.00 155.95 125 125 P________PP___ SH241979 -8.00 155.95 -1 -8.00 155.95 TC -8.00 155.94 1 4 195
1979 SP EA 06:00:00 TS -8.20 155.89 143 143 O________OP___ jtwc_sh SH241979 -8.20 155.90 -1 -8.20 155.90 TC -8.21 155.88 1 4 194
1979 SP EA 09:00:00 TS -8.40 155.84 154 154 P________PP___ SH241979 -8.40 155.85 -1 -8.40 155.85 TC -8.41 155.83 1 4 193
1979 SP EA 12:00:00 TS -8.60 155.80 157 157 O________OO___ jtwc_sh SH241979 -8.60 155.80 -1 -8.60 155.80 TC -8.60 155.80 1 4 191
1979 SP EA 15:00:00 TS -8.80 155.76 163 163 P________PP___ SH241979 -8.80 155.75 -1 -8.80 155.75 TC -8.79 155.79 1 4 191
1979 SP EA 18:00:00 TS -8.99 155.72 182 182 O________OP___ jtwc_sh SH241979 -9.00 155.70 -1 -9.00 155.70 TC -8.98 155.77 1 4 191
1979 SP EA 21:00:00 TS -9.19 155.69 193 193 P________PP___ SH241979 -9.19 155.67 -1 -9.19 155.67 TC -9.18 155.71 1 4 196
1979 SP EA 1979-04-04 00:00:00 TS -9.40 155.60 214 214 O________OO___ jtwc_sh SH241979 -9.40 155.60 -1 -9.40 155.60 TC -9.40 155.60 1 5 209
1979 SP EA 03:00:00 TS -9.65 155.43 245 245 P________PP___ SH241979 -9.63 155.44 -1 -9.63 155.44 TC -9.67 155.39 1 7 219
1979 SP EA 06:00:00 TS -9.92 155.18 283 283 O________OP___ jtwc_sh SH241979 -9.90 155.20 -1 -9.90 155.20 TC -9.96 155.13 1 8 225
1979 SP EA 09:00:00 TS -10.22 154.85 338 338 P________PP___ SH241979 -10.21 154.87 -1 -10.21 154.87 TC -10.24 154.82 1 9 229
1979 SP EA 12:00:00 TS -10.50 154.50 385 382 O________OO___ jtwc_sh SH241979 -10.50 154.50 -1 -10.50 154.50 TC -10.50 154.50 1 8 232
1979 SP EA 15:00:00 TS -10.72 154.20 382 351 P________PP___ SH241979 -10.72 154.19 -1 -10.72 154.19 TC -10.72 154.22 1 7 235
1979 SP EA 18:00:00 TS -10.91 153.91 351 321 O________OP___ jtwc_sh SH241979 -10.90 153.90 -1 -10.90 153.90 TC -10.92 153.93 1 7 239
1979 SP EA 21:00:00 TS -11.07 153.61 321 291 P________PP___ SH241979 -11.07 153.61 -1 -11.07 153.61 TC -11.08 153.63 1 7 244
1979 SP EA 1979-04-05 00:00:00 TS -11.20 153.30 291 263 O________OO___ jtwc_sh SH241979 -11.20 153.30 -1 -11.20 153.30 TC -11.20 153.30 1 7 253
1979 SP EA 03:00:00 TS -11.27 152.96 263 221 P________PP___ SH241979 -11.26 152.96 -1 -11.26 152.96 TC -11.29 152.94 1 7 261
1979 SP EA 06:00:00 TS -11.32 152.59 221 186 O________OP___ jtwc_sh SH241979 -11.30 152.60 -1 -11.30 152.60 TC -11.35 152.56 1 8 264
1979 SP EA 09:00:00 TS -11.36 152.19 186 149 P________PP___ SH241979 -11.35 152.19 -1 -11.35 152.19 TC -11.38 152.17 1 8 264
1979 SP EA 12:00:00 TS -11.40 151.80 149 125 O________OO___ jtwc_sh SH241979 -11.40 151.80 -1 -11.40 151.80 TC -11.40 151.80 1 7 262
1979 SP EA 15:00:00 TS -11.45 151.49 133 114 P________PP___ SH241979 -11.46 151.49 -1 -11.46 151.49 TC -11.44 151.48 1 6 262
1979 SP EA 18:00:00 TS -11.49 151.19 114 103 O________OP___ jtwc_sh SH241979 -11.50 151.20 -1 -11.50 151.20 TC -11.46 151.16 1 6 265
1979 SP EA 21:00:00 TS -11.50 150.86 103 90 P________PP___ SH241979 -11.51 150.86 -1 -11.51 150.86 TC -11.49 150.85 1 7 269
1979 SP EA 1979-04-06 00:00:00 TS -11.50 150.50 90 89 O________OO___ jtwc_sh SH241979 -11.50 150.50 -1 -11.50 150.50 TC -11.50 150.50 1 7 270
1979 SP EA 03:00:00 TS -11.50 150.11 90 90 P________PP___ SH241979 -11.50 150.12 -1 -11.50 150.12 TC -11.51 150.09 1 8 273
1979 SP EA 05:00:00 TS -11.47 149.85 25 1002 bom 99 89 P_____O__PP___ SH241979 -11.50 149.84 -1 -11.10 150.10 20 25 1002 2.00 -11.50 149.84 TC -11.51 149.80 1 45 45 7 287
1979 SP EA 06:00:00 TS -11.40 149.78 89 89 O_____P__OP_O_ jtwc_sh SH241979 -11.50 149.70 -1 -11.10 150.00 20 25 1002 -11.50 149.70 TC -11.51 149.65 1 -11.10 150.30 TC 25 1002 6 286
1979 SP EA 09:00:00 TS -11.36 149.43 104 95 P_____P__PP_P_ SH241979 -11.50 149.24 -1 -11.11 149.70 20 25 1003 -11.50 149.24 TC -11.50 149.21 1 -11.11 150.00 TC 22 1003 7 279
1979 SP EA 11:00:00 TS -11.32 149.23 25 1004 bom 106 106 P_____O__PP_P_ SH241979 -11.50 148.94 -1 -11.10 149.50 20 25 1004 2.00 -11.50 148.94 TC -11.50 148.93 1 -11.11 149.80 TC 20 1003 45 45 6 282
1979 SP EA 12:00:00 TS -11.30 149.15 106 106 O_____P__OO_O_ jtwc_sh SH241979 -11.50 148.80 -1 -11.09 149.41 20 25 1003 -11.50 148.80 TC -11.50 148.80 1 -11.10 149.70 TC 20 1004 6 277
1979 SP EA 15:00:00 TS -11.27 148.85 114 114 P_____P__PP_P_ SH241979 -11.50 148.49 -1 -11.04 149.12 20 25 1002 -11.50 148.49 TC -11.50 148.47 1 -11.06 149.41 TC 22 1003 6 275
1979 SP EA 17:00:00 TS -11.26 148.65 25 1002 bom 120 109 P_____O__PP_P_ SH241979 -11.50 148.30 -1 -11.00 148.90 20 25 1002 1.50 -11.50 148.30 TC -11.49 148.27 1 -11.02 149.21 TC 24 1002 45 45 6 275
1979 SP EA 18:00:00 TS -11.25 148.54 112 112 O_____P__OP_O_ jtwc_sh SH241979 -11.50 148.20 -1 -10.98 148.78 20 25 1002 -11.50 148.20 TC -11.49 148.16 1 -11.00 149.10 TC 25 1002 7 274
1979 SP EA 21:00:00 TS -11.22 148.18 114 112 P_____P__PP_P_ SH241979 -11.50 147.87 -1 -10.93 148.39 20 25 1003 -11.50 147.87 TC -11.49 147.85 1 -10.95 148.73 TC 22 1003 7 274
1979 SP EA 23:00:00 TS -11.20 147.92 25 1005 bom 112 112 P_____O__PP_P_ SH241979 -11.50 147.63 -1 -10.90 148.10 20 25 1005 1.50 -11.50 147.63 TC -11.50 147.62 1 -10.92 148.45 TC 20 1004 45 45 8 273
1979 SP EA 1979-04-07 00:00:00 TS -11.20 147.77 114 114 O_____P__OO_O_ jtwc_sh SH241979 -11.50 147.50 -1 -10.88 147.95 20 25 1004 -11.50 147.50 TC -11.50 147.50 1 -10.90 148.30 TC 20 1005 9 274
1979 SP EA 03:00:00 TS -11.17 147.32 130 130 P_____P__PP_P_ SH241979 -11.49 147.07 -1 -10.83 147.45 20 25 1003 -11.49 147.07 TC -11.52 147.06 1 -10.84 147.82 TC 22 1003 9 273
1979 SP EA 05:00:00 TS -11.16 146.99 25 1002 bom 145 145 P_____O__PP_P_ SH241979 -11.49 146.76 -1 -10.80 147.10 20 25 1002 1.50 -11.49 146.76 TC -11.53 146.74 1 -10.81 147.48 TC 24 1002 45 45 10 271
1979 SP EA 06:00:00 TS -11.16 146.82 157 157 O_____P__OP_O_ jtwc_sh SH241979 -11.50 146.60 -1 -10.79 146.93 20 25 1002 -11.50 146.60 TC -11.54 146.57 1 -10.80 147.30 TC 25 1002 10 269
1979 SP EA 09:00:00 TS -11.18 146.30 196 196 P_____P__PP_P_ SH241979 -11.55 146.09 -1 -10.79 146.38 20 25 1003 -11.55 146.09 TC -11.57 146.08 1 -10.79 146.77 TC 22 1003 10 268
1979 SP EA 11:00:00 TS -11.19 145.94 25 1004 bom 231 231 P_____O__PP_P_ SH241979 -11.59 145.76 -1 -10.80 146.00 20 25 1004 1.50 -11.59 145.76 TC -11.59 145.76 1 -10.80 146.39 TC 20 1003 45 45 10 267
1979 SP EA 12:00:00 TS -11.20 145.77 237 237 O_____P__OO_O_ jtwc_sh SH241979 -11.60 145.60 -1 -10.80 145.81 20 25 1003 -11.60 145.60 TC -11.60 145.60 1 -10.80 146.20 TC 20 1004 10 269
1979 SP EA 15:00:00 TS -11.20 145.26 245 205 P_____P__PP_P_ SH241979 -11.60 145.18 -1 -10.80 145.21 20 25 1002 -11.60 145.18 TC -11.63 145.17 1 -10.80 145.60 TC 22 1003 10 270
1979 SP EA 17:00:00 TS -11.21 144.92 25 1002 bom 205 196 P_____O__PP_P_ SH241979 -11.60 144.93 -1 -10.80 144.80 20 25 1002 1.50 -11.60 144.93 TC -11.65 144.89 1 -10.80 145.20 TC 24 1002 45 45 10 269
1979 SP EA 18:00:00 TS -11.21 144.76 196 149 O_____P__OP_O_ jtwc_sh SH241979 -11.60 144.80 -1 -10.80 144.59 20 25 1002 -11.60 144.80 TC -11.66 144.76 1 -10.80 145.00 TC 25 1002 10 268
1979 SP EA 21:00:00 TS -11.23 144.26 149 111 P_____P__PP_P_ SH241979 -11.65 144.39 -1 -10.80 143.98 20 25 1003 -11.65 144.39 TC -11.68 144.37 1 -10.80 144.44 TC 25 1002 10 268
1979 SP EA 23:00:00 TS -11.24 143.94 25 1004 bom 111 100 P_____O__PP_P_ SH241979 -11.69 144.13 -1 -10.80 143.60 20 25 1004 1.50 -11.69 144.13 TC -11.69 144.12 1 -10.80 144.07 TC 25 1002 45 45 9 268
1979 SP EA 1979-04-08 00:00:00 TS -11.25 143.79 100 55 O_____P__OO_O_ jtwc_sh SH241979 -11.70 144.00 -1 -10.80 143.43 20 25 1003 -11.70 144.00 TC -11.70 144.00 1 -10.80 143.90 TC 25 1003 8 269
1979 SP EA 03:00:00 TS -11.25 143.36 55 24 P_____P__PP_P_ SH241979 -11.71 143.63 -1 -10.80 142.98 20 25 1003 -11.71 143.63 TC -11.72 143.65 1 -10.80 143.35 TC 25 1003 8 270
1979 SP EA 05:00:00 TS -11.25 143.11 25 1003 bom 24 15 P_____O__PP_P_ SH241979 -11.70 143.41 -1 -10.80 142.70 20 25 1003 2.00 -11.70 143.41 TC -11.72 143.43 1 -10.80 143.03 TC 25 1003 45 45 7 270
1979 SP EA 06:00:00 TS -11.25 142.99 15 0 O_____P__OP_O_ jtwc_sh SH241979 -11.70 143.30 -1 -10.80 142.54 20 25 1002 -11.70 143.30 TC -11.72 143.32 1 -10.80 142.90 TC 25 1003 6 270
1979 SP EA 08:00:00 TS -11.26 142.79 25 1001 bom 0 0 P_____O__PP_P_ SH241979 -11.71 143.09 -1 -10.80 142.30 20 25 1001 2.00 -11.71 143.09 TC -11.72 143.11 1 -10.80 142.70 TC 25 1003 45 45 6 270
1979 SP EA 09:00:00 TS -11.26 142.71 0 0 P_____P__PP_P_ SH241979 -11.71 142.99 -1 -10.80 142.27 20 25 1001 -11.71 142.99 TC -11.72 143.01 1 -10.80 142.62 TC 25 1003 4 271
1979 SP EA 11:00:00 TS -11.25 142.59 25 1003 bom 0 0 P_____O__PP_P_ SH241979 -11.71 142.80 -1 -10.80 142.30 20 25 1003 2.00 -11.71 142.80 TC -11.71 142.80 1 -10.80 142.53 TC 25 1003 45 45 3 272
1979 SP EA 12:00:00 TS -11.25 142.54 0 0 O_____P__OO_O_ jtwc_sh SH241979 -11.70 142.70 -1 -10.80 142.32 20 25 1003 -11.70 142.70 TC -11.70 142.70 1 -10.80 142.50 TC 25 1003 3 277
1979 SP EA 15:00:00 TS -11.23 142.39 0 0 P_____P__PP_P_ SH241979 -11.66 142.40 -1 -10.80 142.36 20 25 1003 -11.66 142.40 TC -11.66 142.39 1 -10.80 142.51 TC 25 1003 3 279
1979 SP EA 17:00:00 TS -11.21 142.27 25 1003 bom 0 0 P_____O__PP_P_ SH241979 -11.62 142.20 -1 -10.80 142.30 20 25 1003 2.00 -11.62 142.20 TC -11.62 142.19 1 -10.80 142.52 TC 25 1003 45 45 4 279
1979 SP EA 18:00:00 TS -11.20 142.20 0 0 O_____P__OP_O_ jtwc_sh SH241979 -11.60 142.10 -1 -10.80 142.22 20 25 1003 -11.60 142.10 TC -11.60 142.08 1 -10.80 142.50 TC 25 1003 5 276
1979 SP EA 20:00:00 TS -11.18 142.01 25 1003 bom 21 21 P_____O__PP_P_ SH241979 -11.56 141.90 -1 -10.80 142.00 20 25 1003 2.00 -11.56 141.90 TC -11.56 141.89 1 -10.80 142.35 TC 23 1003 45 45 6 276
1979 SP EA 21:00:00 TS -11.17 141.91 31 31 P_____P__PP_P_ SH241979 -11.54 141.80 -1 -10.80 141.90 20 25 1003 -11.54 141.80 TC -11.54 141.79 1 -10.80 142.25 TC 22 1003 6 275
1979 SP EA 23:00:00 TS -11.16 141.71 25 1005 bom 49 49 P_____O__PP_P_ SH241979 -11.51 141.60 -1 -10.80 141.70 20 25 1005 2.00 -11.51 141.60 TC -11.51 141.60 1 -10.80 142.02 TC 20 1003 45 45 6 274
1979 SP EA 1979-04-09 00:00:00 TS -11.15 141.60 59 55 O_____P__OO_O_ jtwc_sh SH241979 -11.50 141.50 -1 -10.80 141.59 20 25 1004 -11.50 141.50 TC -11.50 141.50 1 -10.80 141.90 TC 20 1004 6 271
1979 SP EA 03:00:00 TS -11.15 141.28 90 90 P_____P__PP_P_ SH241979 -11.49 141.19 -1 -10.81 141.24 20 25 1003 -11.49 141.19 TC -11.49 141.22 1 -10.81 141.56 TC 22 1003 6 270
1979 SP EA 05:00:00 TS -11.15 141.06 25 1003 bom 111 120 P_____O__PP_P_ SH241979 -11.50 140.99 -1 -10.80 141.00 20 25 1003 2.00 -11.50 140.99 TC -11.50 141.04 1 -10.81 141.32 TC 24 1003 45 45 6 270
1979 SP EA 06:00:00 TS -11.15 140.96 120 120 O_____P__OP_O_ jtwc_sh SH241979 -11.50 140.90 -1 -10.79 140.88 20 25 1003 -11.50 140.90 TC -11.50 140.95 1 -10.80 141.20 TC 25 1003 6 274
1979 SP EA 09:00:00 TS -11.13 140.65 153 153 P_____P__PP_P_ SH241979 -11.51 140.65 -1 -10.73 140.53 20 25 1003 -11.51 140.65 TC -11.51 140.68 1 -10.75 140.85 TC 22 1003 6 275
1979 SP EA 11:00:00 TS -11.11 140.45 25 1004 bom 175 186 P_____O__PP_P_ SH241979 -11.51 140.49 -1 -10.70 140.30 20 25 1004 2.00 -11.51 140.49 TC -11.50 140.49 1 -10.71 140.62 TC 20 1003 45 45 6 275
1979 SP EA 12:00:00 TS -11.10 140.35 196 196 O_____P__OO_O_ jtwc_sh SH241979 -11.50 140.40 -1 -10.69 140.18 20 25 1003 -11.50 140.40 TC -11.50 140.40 1 -10.70 140.50 TC 20 1004 6 274
1979 SP EA 15:00:00 TS -11.08 140.03 222 222 P_____P__PP_P_ SH241979 -11.46 140.11 -1 -10.69 139.83 20 25 1003 -11.46 140.11 TC -11.46 140.13 1 -10.69 140.14 TC 22 1003 6 274
1979 SP EA 17:00:00 TS -11.06 139.81 25 1003 bom 240 240 P_____O__PP_P_ SH241979 -11.42 139.90 -1 -10.70 139.60 20 25 1003 2.00 -11.42 139.90 TC -11.43 139.94 1 -10.70 139.91 TC 24 1003 45 45 6 274
1979 SP EA 18:00:00 TS -11.05 139.70 250 250 O_____P__OP_O_ jtwc_sh SH241979 -11.40 139.80 -1 -10.70 139.48 20 25 1003 -11.40 139.80 TC -11.41 139.84 1 -10.70 139.80 TC 25 1003 6 274
1979 SP EA 21:00:00 TS -11.03 139.39 274 274 P_____P__PP_P_ SH241979 -11.35 139.52 -1 -10.71 139.13 20 25 1003 -11.35 139.52 TC -11.35 139.54 1 -10.71 139.50 TC 25 1003 6 275
1979 SP EA 23:00:00 TS -11.01 139.18 25 1004 bom 280 271 P_____O__PP_P_ SH241979 -11.32 139.31 -1 -10.70 138.90 20 25 1004 2.00 -11.32 139.31 TC -11.32 139.32 1 -10.71 139.30 TC 25 1003 45 45 6 275
1979 SP EA 1979-04-10 00:00:00 TS -11.00 139.07 271 235 O_____P__OO_O_ jtwc_sh SH241979 -11.30 139.20 -1 -10.69 138.79 20 25 1003 -11.30 139.20 TC -11.30 139.20 1 -10.70 139.20 TC 25 1003 7 277
1979 SP EA 03:00:00 TS -10.95 138.71 235 226 P_____P__PP_P_ SH241979 -11.24 138.82 -1 -10.64 138.49 20 25 1000 -11.24 138.82 TC -11.28 138.80 1 -10.66 138.84 TC 27 1001 7 278
1979 SP EA 05:00:00 TS -10.92 138.47 25 999 bom 226 218 P_____O__PP_P_ SH241979 -11.21 138.54 -1 -10.60 138.30 20 25 999 2.00 -11.21 138.54 TC -11.26 138.52 1 -10.62 138.61 TC 29 999 45 45 7 277
1979 SP EA 06:00:00 TS -10.91 138.35 211 190 O_____P__OP_O_ jtwc_sh SH241979 -11.20 138.40 -1 -10.58 138.21 20 25 999 -11.20 138.40 TC -11.26 138.37 1 -10.60 138.50 TC 30 999 7 276
1979 SP EA 09:00:00 TS -10.87 137.99 190 179 P_____P__PP_P_ SH241979 -11.20 137.95 -1 -10.53 137.95 20 25 1000 -11.20 137.95 TC -11.24 137.93 1 -10.54 138.23 TC 27 1000 7 275
1979 SP EA 11:00:00 TS -10.86 137.76 25 1001 bom 179 174 P_____O__PP_P_ SH241979 -11.20 137.65 -1 -10.50 137.80 20 25 1001 2.00 -11.20 137.65 TC -11.21 137.64 1 -10.51 138.07 TC 25 1000 45 45 7 274
1979 SP EA 12:00:00 TS -10.85 137.65 184 166 O_____P__OO_O_ jtwc_sh SH241979 -11.20 137.50 -1 -10.49 137.73 20 25 1000 -11.20 137.50 TC -11.20 137.50 1 -10.50 138.00 TC 25 1001 6 274
1979 SP EA 15:00:00 TS -10.83 137.34 160 149 P_____P__PP_P_ SH241979 -11.16 137.09 -1 -10.49 137.53 20 25 1000 -11.16 137.09 TC -11.17 137.07 1 -10.49 137.79 TC 27 1000 6 274
1979 SP EA 17:00:00 TS -10.81 137.15 25 1000 bom 149 149 P_____O__PP_P_ SH241979 -11.12 136.83 -1 -10.50 137.40 20 25 1000 2.00 -11.12 136.83 TC -11.14 136.79 1 -10.50 137.66 TC 29 1000 45 45 6 275
1979 SP EA 18:00:00 TS -10.80 137.05 145 138 O_____P__OP_O_ jtwc_sh SH241979 -11.10 136.70 -1 -10.50 137.33 20 25 999 -11.10 136.70 TC -11.12 136.66 1 -10.50 137.60 TC 30 1000 6 277
1979 SP EA 21:00:00 TS -10.77 136.76 138 136 P_____P__PP_P_ SH241979 -11.03 136.33 -1 -10.50 137.13 20 28 999 -11.03 136.33 TC -11.03 136.30 1 -10.50 137.39 TC 30 999 6 280
1979 SP EA 23:00:00 TS -10.73 136.59 30 999 bom 146 145 P_____O__PP_P_ SH241979 -10.95 136.10 -1 -10.50 137.00 20 30 999 2.50 -10.95 136.10 TC -10.95 136.09 1 -10.50 137.26 TC 30 999 45 45 5 285
1979 SP EA 1979-04-11 00:00:00 TS -10.70 136.51 145 145 O_____P__OO_O_ jtwc_sh SH241979 -10.90 136.00 -1 -10.50 136.94 20 30 998 -10.90 136.00 TC -10.90 136.00 2 -10.50 137.20 TC 30 999 5 295
1979 SP EA 03:00:00 TS -10.58 136.28 158 158 P_____P__PP_P_ SH241979 -10.67 135.70 -1 -10.50 136.77 20 30 997 -10.67 135.70 TC -10.66 135.72 2 -10.50 137.02 TC 32 997 5 302
1979 SP EA 05:00:00 TS -10.49 136.17 30 996 bom 171 171 P_____O__PP_P_ SH241979 -10.49 135.55 -1 -10.50 136.70 20 30 996 2.50 -10.49 135.55 TC -10.47 135.58 2 -10.50 136.93 TC 34 996 45 45 4 314
1979 SP EA 06:00:00 TS -10.44 136.13 184 184 O_____P__OP_O_ jtwc_sh SH241979 -10.40 135.50 -1 -10.50 136.68 20 30 996 -10.40 135.50 TC -10.37 135.52 2 -10.50 136.90 TC 35 996 3 336
1979 SP EA 09:00:00 TS -10.30 136.08 195 195 P_____P__PP_P_ SH241979 -10.11 135.41 -1 -10.50 136.68 20 30 998 -10.11 135.41 TC -10.10 135.44 2 -10.50 136.88 TC 32 998 3 0
1979 SP EA 11:00:00 TS -10.23 136.11 30 1000 bom 206 206 P_____O__PP_P_ SH241979 -9.95 135.45 -1 -10.50 136.70 20 30 1000 2.50 -9.95 135.45 TC -9.95 135.46 2 -10.50 136.89 TC 30 999 45 45 2 22
1979 SP EA 12:00:00 TS -10.20 136.13 206 202 O_____P__OO_O_ jtwc_sh SH241979 -9.90 135.50 -1 -10.50 136.70 20 30 999 -9.90 135.50 TC -9.90 135.50 2 -10.50 136.90 TC 30 1000 3 72
1979 SP EA 15:00:00 TS -10.18 136.28 202 201 P_____P__PP_P_ SH241979 -9.86 135.79 -1 -10.50 136.70 20 30 999 -9.86 135.79 TC -9.84 135.77 2 -10.50 136.90 TC 30 999 3 87
1979 SP EA 17:00:00 TS -10.19 136.41 30 999 bom 201 201 P_____O__PP_P_ SH241979 -9.88 136.06 -1 -10.50 136.70 20 30 999 2.50 -9.88 136.06 TC -9.85 136.03 2 -10.50 136.90 TC 30 999 45 45 4 95
1979 SP EA 18:00:00 TS -10.19 136.48 201 201 O_____P__OP_O_ jtwc_sh SH241979 -9.90 136.20 -1 -10.50 136.70 20 30 999 -9.90 136.20 TC -9.86 136.17 2 -10.50 136.90 TC 30 999 4 96
1979 SP EA 21:00:00 TS -10.21 136.69 202 202 P_____P__PP_P_ SH241979 -9.94 136.64 -1 -10.49 136.69 20 30 999 -9.94 136.64 TC -9.92 136.62 2 -10.49 136.89 TC 30 999 4 97
1979 SP EA 23:00:00 TS -10.24 136.83 30 1000 bom 204 204 P_____O__PP_P_ SH241979 -9.98 136.90 -1 -10.50 136.70 20 30 1000 2.50 -9.98 136.90 TC -9.97 136.88 2 -10.49 136.89 TC 30 999 45 45 4 102
1979 SP EA 1979-04-12 00:00:00 TS -10.25 136.88 195 195 O_____P__OO_O_ jtwc_sh SH241979 -10.00 137.00 -1 -10.51 136.71 20 30 999 -10.00 137.00 TC -10.00 137.00 2 -10.50 136.90 TC 30 999 2 113
1979 SP EA 03:00:00 TS -10.30 136.98 198 198 P_____P__PP_P_ SH241979 -10.05 137.14 -1 -10.57 136.75 20 30 999 -10.05 137.14 TC -10.04 137.19 2 -10.55 136.93 TC 30 999 2 121
1979 SP EA 05:00:00 TS -10.34 137.03 30 999 bom 198 198 P_____O__PP_P_ SH241979 -10.08 137.18 -1 -10.60 136.80 20 30 999 2.50 -10.08 137.18 TC -10.08 137.27 2 -10.59 136.98 TC 30 999 45 45 2 127
1979 SP EA 06:00:00 TS -10.35 137.06 201 190 O_____P__OP_O_ jtwc_sh SH241979 -10.10 137.20 -1 -10.60 136.83 20 30 999 -10.10 137.20 TC -10.09 137.31 2 -10.60 137.00 TC 30 999 2 106
1979 SP EA 09:00:00 TS -10.37 137.17 194 194 P_____P__PP_P_ SH241979 -10.15 137.34 -1 -10.60 136.93 20 30 999 -10.15 137.34 TC -10.15 137.40 2 -10.60 137.09 TC 30 999 2 103
1979 SP EA 11:00:00 TS -10.39 137.25 30 1000 bom 194 199 P_____O__PP_P_ SH241979 -10.18 137.45 -1 -10.60 137.00 20 30 1000 2.50 -10.18 137.45 TC -10.18 137.46 2 -10.60 137.16 TC 30 999 45 45 2 104
1979 SP EA 12:00:00 TS -10.40 137.29 199 199 O_____P__OO_O_ jtwc_sh SH241979 -10.20 137.50 -1 -10.61 137.03 20 30 1000 -10.20 137.50 TC -10.20 137.50 2 -10.60 137.20 TC 30 1000 3 110
1979 SP EA 15:00:00 TS -10.45 137.41 204 194 P_____P__PP_P_ SH241979 -10.25 137.64 -1 -10.66 137.12 20 30 1000 -10.25 137.64 TC -10.24 137.66 2 -10.64 137.29 TC 30 1000 3 111
1979 SP EA 17:00:00 TS -10.48 137.51 30 1000 bom 200 200 P_____O__PP_P_ SH241979 -10.28 137.74 -1 -10.70 137.20 20 30 1000 2.50 -10.28 137.74 TC -10.27 137.77 2 -10.68 137.36 TC 30 1000 45 45 3 109
1979 SP EA 18:00:00 TS -10.50 137.56 206 206 O_____P__OP_O_ jtwc_sh SH241979 -10.30 137.80 -1 -10.72 137.25 20 30 1000 -10.30 137.80 TC -10.28 137.83 2 -10.70 137.40 TC 30 1000 4 106
1979 SP EA 21:00:00 TS -10.55 137.74 213 209 P_____P__PP_P_ SH241979 -10.34 137.99 -1 -10.77 137.43 20 30 1000 -10.34 137.99 TC -10.34 138.01 2 -10.75 137.56 TC 30 1000 4 105
1979 SP EA 23:00:00 TS -10.58 137.89 30 1000 bom 214 214 P_____O__PP_P_ SH241979 -10.38 138.13 -1 -10.80 137.60 20 30 1000 2.50 -10.38 138.13 TC -10.38 138.14 2 -10.78 137.71 TC 30 1000 45 45 5 104
1979 SP EA 1979-04-13 00:00:00 TS -10.60 137.97 219 219 O_____P__OO_O_ jtwc_sh SH241979 -10.40 138.20 -1 -10.81 137.70 20 30 999 -10.40 138.20 TC -10.40 138.20 2 -10.80 137.80 TC 30 1000 5 104
1979 SP EA 03:00:00 TS -10.67 138.23 221 221 P_____P__PP_P_ SH241979 -10.49 138.40 -1 -10.86 138.04 20 33 997 -10.49 138.40 TC -10.49 138.38 2 -10.84 138.12 TC 32 998 6 105
1979 SP EA 05:00:00 TS -10.72 138.42 35 996 bom 235 235 P_____O__PP_P_ SH241979 -10.56 138.53 -1 -10.90 138.30 30 35 996 3.00 -10.56 138.53 TC -10.55 138.50 2 -10.88 138.37 TC 34 996 49 49 6 106
1979 SP EA 06:00:00 TS -10.75 138.52 234 234 O_____P__OP_O_ jtwc_sh SH241979 -10.60 138.60 -1 -10.92 138.43 30 35 996 -10.60 138.60 TC -10.58 138.56 2 -10.90 138.50 TC 35 996 6 108
1979 SP EA 09:00:00 TS -10.85 138.82 251 251 P_____P__PP_P_ SH241979 -10.70 138.80 -1 -11.01 138.84 30 35 998 -10.70 138.80 TC -10.69 138.77 2 -10.98 138.91 TC 32 998 6 110
1979 SP EA 11:00:00 TS -10.93 139.02 35 1000 bom 268 268 P_____O__PP_P_ SH241979 -10.77 138.93 -1 -11.10 139.10 30 35 1000 3.00 -10.77 138.93 TC -10.76 138.92 2 -11.05 139.18 TC 30 999 49 49 6 113
1979 SP EA 12:00:00 TS -10.98 139.12 271 271 O_____P__OO_O_ jtwc_sh SH241979 -10.80 139.00 -1 -11.16 139.21 30 35 999 -10.80 139.00 TC -10.80 139.00 2 -11.10 139.30 TC 30 1000 6 119
1979 SP EA 15:00:00 TS -11.11 139.36 279 264 P_____P__PP_P_ SH241979 -10.90 139.17 -1 -11.36 139.51 30 35 996 -10.90 139.17 TC -10.85 139.20 2 -11.28 139.62 TC 35 997 6 121
1979 SP EA 17:00:00 TS -11.21 139.53 35 995 bom 264 249 P_____O__PP_P_ SH241979 -10.97 139.31 -1 -11.50 139.70 30 35 995 3.00 -10.97 139.31 TC -10.89 139.34 2 -11.43 139.81 TC 38 995 49 49 6 121
1979 SP EA 18:00:00 TS -11.26 139.62 249 215 O_____P__OP_O_ jtwc_sh SH241979 -11.00 139.40 -1 -11.57 139.79 30 35 995 -11.00 139.40 TC -10.92 139.43 2 -11.50 139.90 TC 40 995 7 116
1979 SP EA 21:00:00 TS -11.41 139.93 215 181 P_____P__PP_P_ SH241979 -11.06 139.72 -1 -11.77 140.08 30 35 996 -11.06 139.72 TC -11.02 139.75 2 -11.71 140.18 TC 37 995 7 114
1979 SP EA 23:00:00 TS -11.51 140.19 35 997 bom 181 166 P_____O__PP_P_ SH241979 -11.14 140.02 -1 -11.90 140.30 30 35 997 3.00 -11.14 140.02 TC -11.13 140.03 2 -11.84 140.38 TC 35 995 49 49 9 113
1979 SP EA 1979-04-14 00:00:00 TS -11.58 140.34 166 107 O_____P__OO_O_ jtwc_sh SH241979 -11.20 140.20 -1 -11.96 140.42 30 35 996 -11.20 140.20 TC -11.20 140.20 2 -11.90 140.50 TC 35 996 11 114
1979 SP EA 03:00:00 TS -11.81 140.86 97 48 P_____P__PP_P_ SH241979 -11.51 140.89 -1 -12.12 140.85 30 35 996 -11.51 140.89 TC -11.53 140.83 2 -12.06 140.85 TC 35 996 12 113
1979 SP EA 05:00:00 TS -11.98 141.29 35 996 bom 48 31 P_____O__PP_P_ SH241979 -11.76 141.43 -1 -12.20 141.20 30 35 996 3.00 -11.76 141.43 TC -11.80 141.33 2 -12.16 141.18 TC 35 996 49 49 14 111
1979 SP EA 06:00:00 TS -12.06 141.52 24 0 O_____P__OP_O_ jtwc_sh SH241979 -11.90 141.70 -1 -12.24 141.34 30 33 997 -11.90 141.70 TC -11.94 141.60 2 -12.20 141.40 TC 35 996 16 109
1979 SP EA 08:00:00 TS -12.24 142.07 30 1000 bom 0 0 P_____O__PP_P_ SH241979 -12.19 142.23 -1 -12.30 141.80 20 30 1000 -12.19 142.23 TC -12.21 142.15 2 -12.29 141.96 TC 31 998 45 45 18 108
1979 SP EA 09:00:00 TS -12.33 142.39 0 0 P_____P__PP_P_ SH241979 -12.33 142.49 -1 -12.34 142.21 20 30 1000 -12.33 142.49 TC -12.35 142.44 2 -12.32 142.29 TC 30 999 20 104
1979 SP EA 11:00:00 TS -12.49 143.08 30 1002 bom 0 0 P_____O__PP_P_ SH241979 -12.59 143.03 -1 -12.40 143.20 20 30 1002 -12.59 143.03 TC -12.59 143.01 2 -12.38 143.02 TC 26 1001 45 45 21 102
1979 SP EA 12:00:00 TS -12.55 143.42 0 0 O_____P__OO_O_ jtwc_sh SH241979 -12.70 143.30 -1 -12.41 143.63 20 30 1001 -12.70 143.30 TC -12.70 143.30 2 -12.40 143.40 TC 25 1002 19 97
1979 SP EA 15:00:00 TS -12.64 144.39 103 103 P_____P__PP_P_ SH241979 -12.89 144.10 -1 -12.40 144.79 20 30 1000 -12.89 144.10 TC -12.89 144.05 2 -12.40 144.57 TC 27 1001 19 95
1979 SP EA 17:00:00 TS -12.68 145.02 30 1000 bom 164 175 P_____O__PP_P_ SH241979 -12.96 144.63 -1 -12.40 145.50 20 30 1000 2.50 -12.96 144.63 TC -12.98 144.55 2 -12.39 145.34 TC 29 1000 45 45 18 94
1979 SP EA 18:00:00 TS -12.71 145.33 196 196 O_____P__OP_O_ jtwc_sh SH241979 -13.00 144.90 -1 -12.42 145.85 20 30 1000 -13.00 144.90 TC -13.02 144.81 2 -12.40 145.70 TC 30 1000 18 96
1979 SP EA 21:00:00 TS -12.80 146.21 249 249 P_____P__PP_P_ SH241979 -13.13 145.66 -1 -12.52 146.85 20 30 1001 -13.13 145.66 TC -13.14 145.61 2 -12.40 146.68 TC 27 1000 17 97
1979 SP EA 23:00:00 TS -12.89 146.80 30 1002 bom 282 289 P_____O__PP_P_ SH241979 -13.23 146.21 -1 -12.60 147.50 20 30 1002 2.50 -13.23 146.21 TC -13.24 146.19 2 -12.50 147.25 TC 25 1000 45 45 18 100
1979 SP EA 1979-04-15 00:00:00 TS -12.96 147.11 295 295 O_____P__OO_O_ jtwc_sh SH241979 -13.30 146.50 -1 -12.63 147.84 20 29 1001 -13.30 146.50 TC -13.30 146.50 2 -12.60 147.50 TC 25 1001 19 106
1979 SP EA 03:00:00 TS -13.23 148.04 335 335 P_____P__PP_P_ SH241979 -13.58 147.50 -1 -12.73 148.85 20 26 1000 -13.58 147.50 TC -13.59 147.54 2 -13.22 148.07 TC 30 19 107
1979 SP EA 05:00:00 TS -13.44 148.69 25 1000 bom 339 339 P_____O__PP_P_ SH241979 -13.79 148.23 -1 -12.80 149.50 20 25 1000 2.00 -13.79 148.23 TC -13.80 148.28 2 -13.69 148.46 TC 33 45 45 20 108
1979 SP EA 06:00:00 TS -13.54 149.03 339 336 O_____P__OP_O_ jtwc_sh SH241979 -13.90 148.60 -1 -12.83 149.82 20 25 1000 -13.90 148.60 TC -13.91 148.65 2 -13.90 148.70 TC 35 21 107
1979 SP EA 09:00:00 TS -13.84 150.06 347 347 P_____P__PP_P_ SH241979 -14.22 149.77 -1 -12.93 150.73 20 25 1001 -14.22 149.77 TC -14.23 149.79 2 -14.28 149.75 TC 35 21 106
1979 SP EA 11:00:00 TS -14.03 150.74 25 1002 bom 370 383 P_____O__PP_P_ SH241979 -14.42 150.54 -1 -13.00 151.30 20 25 1002 1.50 -14.42 150.54 TC -14.42 150.54 2 -14.44 150.52 TC 35 45 45 20 111
1979 SP EA 12:00:00 TS -14.21 151.04 397 397 O_____P__OO_O_ jtwc_sh SH241979 -14.50 150.90 -1 -13.03 151.57 20 25 1002 -14.50 150.90 TC -14.50 150.90 2 -14.50 150.90 TC 35 18 113
1979 SP EA 15:00:00 TS -14.51 151.89 455 455 P_____P__PP_P_ SH241979 -14.68 151.82 -1 -13.13 152.32 20 25 1002 -14.68 151.82 TC -14.68 151.82 2 -14.68 151.87 TC 32 17 109
1979 SP EA 17:00:00 TS -14.67 152.45 25 1002 bom 494 498 P_____O__PP_P_ SH241979 -14.76 152.40 -1 -13.20 152.80 20 25 1002 1.50 -14.76 152.40 TC -14.78 152.41 2 -14.76 152.49 TC 30 45 45 17 110
1979 SP EA 18:00:00 TS -14.80 152.73 517 517 O________OP_O_ jtwc_sh SH241979 -14.80 152.70 -1 20 -14.80 152.70 TC -14.82 152.71 2 -14.80 152.80 TC 30 18 102
1979 SP EA 21:00:00 TS -14.92 153.64 575 575 P________PP_P_ SH241979 -14.91 153.63 -1 20 -14.91 153.63 TC -14.92 153.65 2 -14.91 153.68 TC 30 19 96
1979 SP EA 1979-04-16 00:00:00 TS -15.00 154.70 656 656 O________OO_O_ jtwc_sh SH241979 -15.00 154.70 -1 -15.00 154.70 TC -15.00 154.70 1 -15.00 154.70 TC 30 23 94
1979 SP EA 03:00:00 TS -15.06 156.02 722 648 P________PP_P_ SH241979 -15.06 156.04 -1 -15.06 156.04 TC -15.08 155.98 1 -15.06 156.03 TC 30 27 92
1979 SP EA 06:00:00 TS -15.11 157.47 643 587 O________OP_O_ jtwc_sh SH241979 -15.10 157.50 -1 -15.10 157.50 TC -15.13 157.39 1 -15.10 157.50 TC 30 28 92
1979 SP EA 09:00:00 TS -15.15 158.89 584 522 P________PP_P_ SH241979 -15.15 158.91 -1 -15.15 158.91 TC -15.17 158.85 1 -15.15 158.92 TC 30 27 92
1979 SP MM 12:00:00 TS -15.20 160.30 518 493 O________OO_O_ jtwc_sh SH241979 -15.20 160.30 -1 -15.20 160.30 TC -15.20 160.30 1 -15.20 160.30 TC 30 27 92
1979 SP MM 15:00:00 TS -15.25 161.66 492 390 P________PP_P_ SH241979 -15.26 161.66 -1 -15.26 161.66 TC -15.23 161.69 1 -15.26 161.61 TC 30 26 92
1979 SP MM 18:00:00 TS -15.29 162.98 380 253 O________OP_O_ jtwc_sh SH241979 -15.30 163.00 -1 -15.30 163.00 TC -15.26 163.02 1 -15.30 162.90 TC 30 25 91
1979 SP MM 21:00:00 TS -15.30 164.29 242 118 P________PP_P_ SH241979 -15.31 164.31 -1 -15.31 164.31 TC -15.28 164.32 1 -15.31 164.24 TC 30 25 90
1979 SP MM 1979-04-17 00:00:00 TS -15.30 165.60 107 O________OO_O_ jtwc_sh SH241979 -15.30 165.60 -1 -15.30 165.60 TC -15.30 165.60 6 -15.30 165.60 TC 30 25 90